createdAt,value
2022-11-24T00:01:04.387Z,94859.53
2022-11-24T00:03:31.893Z,94873.78
2022-11-24T00:06:07.331Z,94870.94
2022-11-24T00:08:35.247Z,94871.19
2022-11-24T00:11:06.633Z,94865.22
2022-11-24T00:13:35.176Z,94869.91
2022-11-24T00:16:10.871Z,94865.50
2022-11-24T00:18:38.858Z,94869.16
2022-11-24T00:21:07.903Z,94875.63
2022-11-24T00:23:35.764Z,94850.75
2022-11-24T00:26:08.053Z,94865.56
2022-11-24T00:28:35.977Z,94858.06
2022-11-24T00:31:04.183Z,94855.19
2022-11-24T00:33:32.346Z,94855.69
2022-11-24T00:36:01.160Z,94846.59
2022-11-24T00:38:29.973Z,94846.59
2022-11-24T00:40:57.422Z,94854.34
2022-11-24T00:43:24.837Z,94856.47
2022-11-24T00:45:52.346Z,94856.44
2022-11-24T00:48:19.923Z,94852.03
2022-11-24T00:50:57.047Z,94855.09
2022-11-24T00:53:24.536Z,94868.56
2022-11-24T00:55:54.159Z,94878.69
2022-11-24T00:58:22.523Z,94863.38
2022-11-24T01:00:50.445Z,94870.38
2022-11-24T01:03:19.639Z,94880.53
2022-11-24T01:05:47.085Z,94857.34
2022-11-24T01:08:14.548Z,94879.75
2022-11-24T01:10:42.022Z,94869.88
2022-11-24T01:13:12.034Z,94885.25
2022-11-24T01:15:39.671Z,94889.13
2022-11-24T01:18:07.440Z,94900.81
2022-11-24T01:20:34.918Z,94898.47
2022-11-24T01:23:02.388Z,94896.16
2022-11-24T01:25:29.838Z,94885.78
2022-11-24T01:27:57.288Z,94894.56
2022-11-24T01:30:26.086Z,94898.97
2022-11-24T01:32:53.549Z,94899.25
2022-11-24T01:35:20.990Z,94890.47
2022-11-24T01:37:48.390Z,94894.13
2022-11-24T01:40:16.266Z,94883.47
2022-11-24T01:42:49.538Z,94874.84
2022-11-24T01:45:41.455Z,94873.25
2022-11-24T01:48:15.499Z,94894.03
2022-11-24T01:50:44.245Z,94897.41
2022-11-24T01:53:13.669Z,94902.31
2022-11-24T01:55:42.059Z,94894.50
2022-11-24T01:58:16.062Z,94909.28
2022-11-24T02:00:46.722Z,94903.09
2022-11-24T02:03:18.054Z,94903.63
2022-11-24T02:05:52.063Z,94913.75
2022-11-24T02:08:26.998Z,94904.94
2022-11-24T02:10:55.916Z,94904.44
2022-11-24T02:13:23.685Z,94888.88
2022-11-24T02:15:53.939Z,94917.19
2022-11-24T02:18:21.462Z,94916.44
2022-11-24T02:20:48.939Z,94919.28
2022-11-24T02:23:24.892Z,94913.31
2022-11-24T02:26:00.634Z,94897.19
2022-11-24T02:28:31.125Z,94905.50
2022-11-24T02:31:00.538Z,94901.81
2022-11-24T02:33:28.557Z,94886.50
2022-11-24T02:35:56.045Z,94895.34
2022-11-24T02:38:31.297Z,94897.69
2022-11-24T02:41:01.517Z,94906.47
2022-11-24T02:43:33.603Z,94906.19
2022-11-24T02:46:01.102Z,94909.56
2022-11-24T02:48:28.596Z,94910.09
2022-11-24T02:50:56.054Z,94907.72
2022-11-24T02:53:23.543Z,94915.50
2022-11-24T02:55:51.026Z,94907.97
2022-11-24T02:58:18.520Z,94890.81
2022-11-24T03:00:47.409Z,94881.47
2022-11-24T03:03:15.185Z,94904.59
2022-11-24T03:05:42.729Z,94903.28
2022-11-24T03:08:10.158Z,94923.81
2022-11-24T03:10:37.732Z,94910.81
2022-11-24T03:13:05.170Z,94942.50
2022-11-24T03:15:32.669Z,94941.75
2022-11-24T03:18:01.837Z,94950.56
2022-11-24T03:20:29.595Z,94938.13
2022-11-24T03:22:57.641Z,94934.72
2022-11-24T03:25:25.149Z,94938.91
2022-11-24T03:27:52.683Z,94942.81
2022-11-24T03:30:20.205Z,94938.38
2022-11-24T03:32:47.635Z,94947.50
2022-11-24T03:35:16.607Z,94951.09
2022-11-24T03:37:44.056Z,94947.72
2022-11-24T03:40:12.305Z,94962.50
2022-11-24T03:42:40.577Z,94947.19
2022-11-24T03:45:37.835Z,94959.91
2022-11-24T03:47:56.965Z,94952.13
2022-11-24T03:50:25.758Z,94959.06
2022-11-24T03:52:53.401Z,94958.56
2022-11-24T03:55:20.839Z,94953.16
2022-11-24T03:57:48.278Z,94954.69
2022-11-24T04:00:16.798Z,94959.09
2022-11-24T04:02:44.324Z,94965.84
2022-11-24T04:05:11.914Z,94967.94
2022-11-24T04:07:40.750Z,94963.03
2022-11-24T04:10:08.929Z,94972.09
2022-11-24T04:12:44.583Z,94960.44
2022-11-24T04:15:12.782Z,94968.97
2022-11-24T04:17:40.547Z,94970.28
2022-11-24T04:20:09.430Z,94973.63
2022-11-24T04:22:36.905Z,94957.81
2022-11-24T04:25:07.282Z,94961.78
2022-11-24T04:27:35.580Z,94962.56
2022-11-24T04:30:03.616Z,94962.56
2022-11-24T04:32:31.043Z,94976.56
2022-11-24T04:34:58.467Z,94983.84
2022-11-24T04:37:25.953Z,94981.50
2022-11-24T04:39:54.988Z,94979.38
2022-11-24T04:42:23.764Z,94982.75
2022-11-24T04:44:51.203Z,94978.13
2022-11-24T04:47:21.386Z,94997.81
2022-11-24T04:49:49.127Z,94989.47
2022-11-24T04:52:16.926Z,94998.31
2022-11-24T04:54:44.453Z,95006.84
2022-11-24T04:57:16.629Z,95004.28
2022-11-24T04:59:45.466Z,95011.56
2022-11-24T05:02:13.853Z,95000.19
2022-11-24T05:04:41.406Z,94988.19
2022-11-24T05:07:17.675Z,95016.50
2022-11-24T05:10:03.780Z,95009.94
2022-11-24T05:12:32.656Z,95030.66
2022-11-24T05:15:02.790Z,95032.72
2022-11-24T05:17:31.506Z,95044.03
2022-11-24T05:19:59.455Z,95037.28
2022-11-24T05:22:29.106Z,95046.78
2022-11-24T05:24:56.666Z,95038.38
2022-11-24T05:27:24.593Z,95056.69
2022-11-24T05:29:52.046Z,95051.97
2022-11-24T05:32:20.812Z,95051.91
2022-11-24T05:34:48.261Z,95047.16
2022-11-24T05:37:15.846Z,95052.81
2022-11-24T05:39:43.324Z,95046.25
2022-11-24T05:42:28.850Z,95052.44
2022-11-24T05:44:57.359Z,95049.53
2022-11-24T05:47:26.370Z,95046.00
2022-11-24T05:49:53.878Z,95059.88
2022-11-24T05:52:21.395Z,95069.47
2022-11-24T05:54:48.858Z,95065.09
2022-11-24T05:57:17.494Z,95066.34
2022-11-24T05:59:45.535Z,95050.28
2022-11-24T06:02:14.010Z,95073.69
2022-11-24T06:04:42.907Z,95074.50
2022-11-24T06:07:12.601Z,95070.94
2022-11-24T06:09:41.218Z,95075.09
2022-11-24T06:12:09.569Z,95076.16
2022-11-24T06:14:37.428Z,95065.50
2022-11-24T06:17:05.831Z,95077.19
2022-11-24T06:19:36.324Z,95080.06
2022-11-24T06:22:07.408Z,95075.69
2022-11-24T06:24:34.942Z,95092.47
2022-11-24T06:27:02.488Z,95089.06
2022-11-24T06:29:29.889Z,95097.03
2022-11-24T06:31:57.394Z,95095.78
2022-11-24T06:34:24.876Z,95092.19
2022-11-24T06:36:52.315Z,95102.06
2022-11-24T06:39:21.105Z,95099.94
2022-11-24T06:41:50.921Z,95099.53
2022-11-24T06:44:18.465Z,95090.41
2022-11-24T06:46:46.188Z,95097.22
2022-11-24T06:49:13.693Z,95114.81
2022-11-24T06:51:41.772Z,95128.28
2022-11-24T06:54:09.703Z,95114.69
2022-11-24T06:56:38.747Z,95131.63
2022-11-24T06:59:06.217Z,95127.69
2022-11-24T07:01:33.674Z,95118.22
2022-11-24T07:04:01.105Z,95144.22
2022-11-24T07:06:29.041Z,95147.84
2022-11-24T07:08:56.702Z,95145.50
2022-11-24T07:11:25.137Z,95159.22
2022-11-24T07:13:59.635Z,95169.34
2022-11-24T07:16:28.401Z,95166.97
2022-11-24T07:18:56.241Z,95169.28
2022-11-24T07:21:25.819Z,95176.25
2022-11-24T07:23:54.774Z,95172.56
2022-11-24T07:26:22.944Z,95185.28
2022-11-24T07:28:50.935Z,95177.22
2022-11-24T07:31:21.394Z,95183.19
2022-11-24T07:33:50.179Z,95183.94
2022-11-24T07:36:17.877Z,95196.47
2022-11-24T07:38:45.416Z,95206.06
2022-11-24T07:41:14.469Z,95213.91
2022-11-24T07:43:42.149Z,95226.66
2022-11-24T07:46:12.578Z,95228.22
2022-11-24T07:48:41.724Z,95230.81
2022-11-24T07:51:09.634Z,95233.94
2022-11-24T07:53:37.848Z,95240.94
2022-11-24T07:56:07.064Z,95230.75
2022-11-24T07:58:36.312Z,95249.00
2022-11-24T08:01:11.547Z,95252.13
2022-11-24T08:03:39.167Z,95246.88
2022-11-24T08:06:23.592Z,95251.88
2022-11-24T08:08:53.847Z,95250.03
2022-11-24T08:11:21.297Z,95279.41
2022-11-24T08:13:48.882Z,95276.34
2022-11-24T08:16:18.721Z,95286.94
2022-11-24T08:18:50.649Z,95287.72
2022-11-24T08:21:20.529Z,95295.28
2022-11-24T08:23:48.014Z,95293.78
2022-11-24T08:26:18.674Z,95298.75
2022-11-24T08:28:47.486Z,95308.66
2022-11-24T08:31:16.459Z,95301.13
2022-11-24T08:33:44.103Z,95307.06
2022-11-24T08:36:14.558Z,95303.72
2022-11-24T08:38:44.535Z,95323.41
2022-11-24T08:41:15.041Z,95322.16
2022-11-24T08:43:42.730Z,95320.03
2022-11-24T08:46:12.889Z,95324.25
2022-11-24T08:48:41.379Z,95338.31
2022-11-24T08:51:11.064Z,95333.44
2022-11-24T08:53:39.693Z,95333.06
2022-11-24T08:56:10.011Z,95333.31
2022-11-24T08:58:38.157Z,95327.25
2022-11-24T09:01:07.138Z,95331.81
2022-11-24T09:03:35.242Z,95340.06
2022-11-24T09:06:02.771Z,95346.25
2022-11-24T09:08:30.607Z,95340.53
2022-11-24T09:11:01.057Z,95334.72
2022-11-24T09:13:30.254Z,95347.59
2022-11-24T09:15:57.695Z,95354.84
2022-11-24T09:18:28.964Z,95368.47
2022-11-24T09:21:07.068Z,95372.94
2022-11-24T09:23:34.598Z,95376.13
2022-11-24T09:26:05.001Z,95368.91
2022-11-24T09:28:34.144Z,95385.00
2022-11-24T09:31:03.141Z,95385.72
2022-11-24T09:33:31.407Z,95392.47
2022-11-24T09:35:59.024Z,95393.53
2022-11-24T09:38:26.781Z,95399.28
2022-11-24T09:40:58.071Z,95400.31
2022-11-24T09:43:39.462Z,95410.19
2022-11-24T09:46:12.309Z,95409.94
2022-11-24T09:48:42.657Z,95416.22
2022-11-24T09:51:13.129Z,95404.56
2022-11-24T09:53:45.121Z,95416.69
2022-11-24T09:56:19.563Z,95413.81
2022-11-24T09:58:50.561Z,95418.56
2022-11-24T10:01:20.016Z,95416.28
2022-11-24T10:03:50.753Z,95414.47
2022-11-24T10:06:26.606Z,95418.38
2022-11-24T10:09:24.672Z,95418.63
2022-11-24T10:12:02.140Z,95420.59
2022-11-24T10:14:59.861Z,95406.81
2022-11-24T10:17:42.900Z,95431.66
2022-11-24T10:20:19.218Z,95436.97
2022-11-24T10:22:59.591Z,95426.38
2022-11-24T10:25:37.282Z,95444.75
2022-11-24T10:28:11.161Z,95445.75
2022-11-24T10:30:40.082Z,95435.22
2022-11-24T10:33:17.178Z,95444.09
2022-11-24T10:35:49.144Z,95438.53
2022-11-24T10:38:33.074Z,95440.66
2022-11-24T10:41:06.129Z,95426.72
2022-11-24T10:43:33.577Z,95442.75
2022-11-24T10:46:12.584Z,95439.75
2022-11-24T10:48:46.793Z,95446.03
2022-11-24T10:51:43.186Z,95439.81
2022-11-24T10:54:17.590Z,95447.09
2022-11-24T10:56:46.772Z,95444.03
2022-11-24T10:59:39.263Z,95438.34
2022-11-24T11:02:31.469Z,95449.88
2022-11-24T11:04:59.611Z,95452.00
2022-11-24T11:07:27.595Z,95440.63
2022-11-24T11:10:19.178Z,95456.75
2022-11-24T11:12:46.756Z,95459.34
2022-11-24T11:15:24.139Z,95452.69
2022-11-24T11:17:57.240Z,95460.28
2022-11-24T11:20:29.599Z,95451.44
2022-11-24T11:22:59.889Z,95458.47
2022-11-24T11:25:32.747Z,95451.06
2022-11-24T11:28:22.718Z,95461.56
2022-11-24T11:31:19.993Z,95455.88
2022-11-24T11:34:04.777Z,95464.88
2022-11-24T11:36:35.196Z,95459.66
2022-11-24T11:39:04.499Z,95469.94
2022-11-24T11:41:34.643Z,95485.34
2022-11-24T11:44:16.093Z,95485.94
2022-11-24T11:46:45.690Z,95476.81
2022-11-24T11:49:14.966Z,95483.88
2022-11-24T11:52:02.327Z,95480.16
2022-11-24T11:54:45.309Z,95481.19
2022-11-24T11:57:23.333Z,95479.97
2022-11-24T12:00:04.225Z,95475.91
2022-11-24T12:03:05.869Z,95483.38
2022-11-24T12:05:48.419Z,95440.69
2022-11-24T12:08:49.498Z,95474.59
2022-11-24T12:11:27.196Z,95471.06
2022-11-24T12:14:05.841Z,95449.13
2022-11-24T12:16:45.415Z,95462.81
2022-11-24T12:19:39.194Z,95467.56
2022-11-24T12:22:18.122Z,95462.81
2022-11-24T12:24:54.100Z,95458.56
2022-11-24T12:27:32.882Z,95457.97
2022-11-24T12:30:10.525Z,95455.63
2022-11-24T12:33:12.262Z,95455.13
2022-11-24T12:35:43.593Z,95459.59
2022-11-24T12:38:24.394Z,95459.34
2022-11-24T12:41:33.746Z,95459.28
2022-11-24T12:43:56.189Z,95457.22
2022-11-24T12:46:32.840Z,95462.19
2022-11-24T12:49:11.702Z,95463.19
2022-11-24T12:51:42.862Z,95450.97
2022-11-24T12:54:17.717Z,95453.56
2022-11-24T12:56:54.067Z,95459.34
2022-11-24T12:59:33.202Z,95447.94
2022-11-24T13:02:14.849Z,95452.88
2022-11-24T13:04:48.761Z,95458.06
2022-11-24T13:07:21.068Z,95455.47
2022-11-24T13:13:16.041Z,95450.22
2022-11-24T13:19:10.612Z,95453.31
2022-11-24T13:21:51.625Z,95466.09
2022-11-24T13:24:24.975Z,95470.75
2022-11-24T13:26:54.236Z,95459.25
2022-11-24T13:29:34.596Z,95475.16
2022-11-24T13:32:52.451Z,95478.72
2022-11-24T13:35:19.888Z,95482.06
2022-11-24T13:37:51.479Z,95487.06
2022-11-24T13:40:54.334Z,95482.63
2022-11-24T13:43:29.989Z,95477.75
2022-11-24T13:45:58.771Z,95487.28
2022-11-24T13:49:01.986Z,95485.19
2022-11-24T13:51:29.691Z,95493.47
2022-11-24T13:54:00.659Z,95483.84
2022-11-24T13:56:30.575Z,95483.00
2022-11-24T13:59:00.485Z,95482.72
2022-11-24T14:01:31.729Z,95488.66
2022-11-24T14:07:01.177Z,95495.81
2022-11-24T14:09:37.277Z,95487.81
2022-11-24T14:12:13.899Z,95491.84
2022-11-24T14:14:41.802Z,95481.91
2022-11-24T14:17:17.318Z,95483.66
2022-11-24T14:19:46.337Z,95482.34
2022-11-24T14:22:17.115Z,95484.69
2022-11-24T14:24:45.314Z,95477.41
2022-11-24T14:27:16.499Z,95481.03
2022-11-24T14:29:55.017Z,95470.81
2022-11-24T14:32:24.601Z,95473.84
2022-11-24T14:34:53.995Z,95456.47
2022-11-24T14:37:21.674Z,95468.50
2022-11-24T14:39:49.446Z,95459.38
2022-11-24T14:42:20.020Z,95476.03
2022-11-24T14:44:51.635Z,95474.16
2022-11-24T14:47:30.396Z,95482.59
2022-11-24T14:50:08.645Z,95485.16
2022-11-24T14:52:36.683Z,95482.63
2022-11-24T14:55:21.725Z,95473.59
2022-11-24T14:57:49.605Z,95490.06
2022-11-24T15:00:21.401Z,95490.59
2022-11-24T15:02:53.961Z,95504.97
2022-11-24T15:05:23.626Z,95501.56
2022-11-24T15:07:53.196Z,95498.28
2022-11-24T15:10:29.092Z,95499.13
2022-11-24T15:13:01.268Z,95498.59
2022-11-24T15:15:33.150Z,95516.00
2022-11-24T15:18:03.535Z,95518.13
2022-11-24T15:20:34.981Z,95508.91
2022-11-24T15:23:23.053Z,95500.91
2022-11-24T15:25:51.364Z,95498.44
2022-11-24T15:28:19.495Z,95507.97
2022-11-24T15:30:46.935Z,95508.34
2022-11-24T15:33:17.507Z,95494.75
2022-11-24T15:35:45.939Z,95504.69
2022-11-24T15:38:13.681Z,95509.69
2022-11-24T15:40:42.882Z,95492.91
2022-11-24T15:43:23.517Z,95502.38
2022-11-24T15:45:50.957Z,95507.97
2022-11-24T15:48:19.722Z,95516.31
2022-11-24T15:50:47.981Z,95514.66
2022-11-24T15:53:20.064Z,95484.78
2022-11-24T15:55:47.917Z,95514.56
2022-11-24T15:58:15.933Z,95515.94
2022-11-24T16:00:44.255Z,95511.00
2022-11-24T16:03:45.030Z,95522.38
2022-11-24T16:06:02.000Z,95519.91
2022-11-24T16:08:29.403Z,95517.31
2022-11-24T16:10:56.902Z,95530.81
2022-11-24T16:13:24.367Z,95519.69
2022-11-24T16:15:51.854Z,95512.59
2022-11-24T16:18:19.362Z,95516.75
2022-11-24T16:20:46.764Z,95513.06
2022-11-24T16:23:15.509Z,95516.19
2022-11-24T16:25:42.946Z,95509.91
2022-11-24T16:28:10.366Z,95518.22
2022-11-24T16:30:38.090Z,95514.97
2022-11-24T16:33:06.552Z,95509.59
2022-11-24T16:35:34.260Z,95503.63
2022-11-24T16:38:01.659Z,95498.13
2022-11-24T16:40:30.410Z,95501.59
2022-11-24T16:42:58.738Z,95505.66
2022-11-24T16:45:26.205Z,95495.34
2022-11-24T16:47:54.054Z,95505.34
2022-11-24T16:50:21.676Z,95500.06
2022-11-24T16:52:49.113Z,95494.78
2022-11-24T16:55:16.729Z,95492.41
2022-11-24T16:57:45.547Z,95495.34
2022-11-24T17:00:14.118Z,95490.72
2022-11-24T17:02:41.691Z,95495.91
2022-11-24T17:05:09.858Z,95498.50
2022-11-24T17:07:37.311Z,95502.09
2022-11-24T17:10:05.443Z,95499.72
2022-11-24T17:12:32.897Z,95501.94
2022-11-24T17:15:31.128Z,95499.91
2022-11-24T17:18:16.117Z,95486.81
2022-11-24T17:20:36.595Z,95509.44
2022-11-24T17:23:06.208Z,95508.72
2022-11-24T17:25:34.116Z,95513.78
2022-11-24T17:28:01.550Z,95497.72
2022-11-24T17:30:30.376Z,95512.13
2022-11-24T17:32:57.831Z,95501.69
2022-11-24T17:35:25.279Z,95482.75
2022-11-24T17:37:52.725Z,95513.22
2022-11-24T17:40:28.254Z,95516.03
2022-11-24T17:42:59.877Z,95514.25
2022-11-24T17:45:27.666Z,95517.59
2022-11-24T17:47:56.613Z,95512.91
2022-11-24T17:50:26.121Z,95515.47
2022-11-24T17:52:53.910Z,95514.81
2022-11-24T17:55:21.472Z,95510.75
2022-11-24T17:57:49.070Z,95510.03
2022-11-24T18:00:17.402Z,95480.72
2022-11-24T18:02:44.895Z,95505.88
2022-11-24T18:05:13.828Z,95511.84
2022-11-24T18:07:41.346Z,95517.25
2022-11-24T18:10:09.637Z,95518.16
2022-11-24T18:12:37.089Z,95520.06
2022-11-24T18:15:05.015Z,95517.81
2022-11-24T18:17:32.457Z,95511.75
2022-11-24T18:20:00.046Z,95504.75
2022-11-24T18:22:57.796Z,95510.75
2022-11-24T18:25:16.209Z,95498.00
2022-11-24T18:27:43.688Z,95500.03
2022-11-24T18:30:11.294Z,95508.00
2022-11-24T18:32:38.733Z,95493.09
2022-11-24T18:35:07.114Z,95507.78
2022-11-24T18:37:38.941Z,95526.91
2022-11-24T18:40:08.050Z,95527.38
2022-11-24T18:42:35.504Z,95526.72
2022-11-24T18:45:04.184Z,95534.41
2022-11-24T18:47:32.706Z,95539.94
2022-11-24T18:50:00.497Z,95538.16
2022-11-24T18:52:27.937Z,95539.84
2022-11-24T18:54:57.422Z,95537.50
2022-11-24T18:57:24.855Z,95548.84
2022-11-24T18:59:52.390Z,95543.31
2022-11-24T19:02:19.855Z,95538.72
2022-11-24T19:04:47.331Z,95534.44
2022-11-24T19:07:16.889Z,95529.06
2022-11-24T19:09:44.383Z,95533.69
2022-11-24T19:12:13.438Z,95532.34
2022-11-24T19:14:40.833Z,95537.97
2022-11-24T19:17:08.454Z,95537.06
2022-11-24T19:19:35.922Z,95535.91
2022-11-24T19:22:03.853Z,95549.84
2022-11-24T19:24:31.298Z,95537.03
2022-11-24T19:26:58.739Z,95538.41
2022-11-24T19:29:27.543Z,95520.66
2022-11-24T19:31:55.463Z,95525.00
2022-11-24T19:34:22.981Z,95527.38
2022-11-24T19:36:50.413Z,95534.69
2022-11-24T19:39:17.879Z,95521.66
2022-11-24T19:41:45.605Z,95518.72
2022-11-24T19:44:13.635Z,95537.84
2022-11-24T19:46:42.395Z,95532.41
2022-11-24T19:49:09.825Z,95536.03
2022-11-24T19:51:39.594Z,95530.53
2022-11-24T19:54:08.478Z,95537.72
2022-11-24T19:56:37.638Z,95536.06
2022-11-24T19:59:06.778Z,95527.88
2022-11-24T20:01:36.937Z,95529.34
2022-11-24T20:04:07.558Z,95522.34
2022-11-24T20:06:37.227Z,95500.00
2022-11-24T20:09:07.533Z,95526.31
2022-11-24T20:11:35.304Z,95532.56
2022-11-24T20:14:02.770Z,95524.94
2022-11-24T20:16:32.414Z,95534.38
2022-11-24T20:19:01.178Z,95534.47
2022-11-24T20:21:31.700Z,95533.00
2022-11-24T20:24:01.034Z,95525.47
2022-11-24T20:26:31.582Z,95534.38
2022-11-24T20:29:01.003Z,95535.59
2022-11-24T20:31:31.095Z,95529.53
2022-11-24T20:33:59.710Z,95545.25
2022-11-24T20:36:29.150Z,95542.34
2022-11-24T20:39:00.784Z,95522.66
2022-11-24T20:41:30.567Z,95538.50
2022-11-24T20:44:01.567Z,95536.47
2022-11-24T20:46:30.777Z,95524.00
2022-11-24T20:48:58.799Z,95474.69
2022-11-24T20:51:28.567Z,95522.31
2022-11-24T20:53:59.358Z,95523.91
2022-11-24T20:56:28.994Z,95518.03
2022-11-24T20:58:57.262Z,95532.41
2022-11-24T21:01:26.630Z,95534.25
2022-11-24T21:03:56.598Z,95537.59
2022-11-24T21:06:25.295Z,95516.25
2022-11-24T21:08:53.223Z,95531.53
2022-11-24T21:11:23.120Z,95526.94
2022-11-24T21:13:51.263Z,95515.69
2022-11-24T21:16:21.954Z,95514.66
2022-11-24T21:18:51.571Z,95511.31
2022-11-24T21:21:20.543Z,95492.88
2022-11-24T21:23:48.344Z,95484.81
2022-11-24T21:26:17.492Z,95505.00
2022-11-24T21:28:48.048Z,95486.13
2022-11-24T21:31:17.426Z,95492.88
2022-11-24T21:33:46.616Z,95500.03
2022-11-24T21:36:16.055Z,95495.19
2022-11-24T21:38:43.731Z,95488.09
2022-11-24T21:41:13.815Z,95488.09
2022-11-24T21:43:41.293Z,95493.91
2022-11-24T21:46:12.053Z,95480.31
2022-11-24T21:48:41.183Z,95472.38
2022-11-24T21:51:11.333Z,95471.66
2022-11-24T21:53:38.946Z,95482.91
2022-11-24T21:56:09.633Z,95468.97
2022-11-24T21:58:37.122Z,95480.53
2022-11-24T22:01:06.260Z,95486.72
2022-11-24T22:03:35.538Z,95494.38
2022-11-24T22:06:03.730Z,95498.84
2022-11-24T22:08:32.117Z,95499.84
2022-11-24T22:11:03.357Z,95484.34
2022-11-24T22:13:30.822Z,95483.19
2022-11-24T22:16:02.697Z,95481.72
2022-11-24T22:18:36.155Z,95484.88
2022-11-24T22:21:03.694Z,95495.06
2022-11-24T22:23:31.381Z,95477.75
2022-11-24T22:26:03.613Z,95467.97
2022-11-24T22:28:32.134Z,95472.44
2022-11-24T22:30:59.741Z,95464.28
2022-11-24T22:33:27.166Z,95469.78
2022-11-24T22:35:59.652Z,95459.28
2022-11-24T22:38:28.065Z,95439.09
2022-11-24T22:40:55.621Z,95453.31
2022-11-24T22:43:23.532Z,95452.53
2022-11-24T22:45:51.010Z,95460.84
2022-11-24T22:48:18.794Z,95467.91
2022-11-24T22:50:46.241Z,95463.91
2022-11-24T22:53:15.022Z,95458.56
2022-11-24T22:55:42.477Z,95450.31
2022-11-24T22:58:09.913Z,95452.38
2022-11-24T23:00:37.324Z,95451.91
2022-11-24T23:03:04.815Z,95428.97
2022-11-24T23:05:33.689Z,95459.44
2022-11-24T23:08:01.127Z,95457.88
2022-11-24T23:10:29.974Z,95458.78
2022-11-24T23:12:57.396Z,95468.69
2022-11-24T23:15:24.865Z,95462.47
2022-11-24T23:17:52.322Z,95451.66
2022-11-24T23:20:19.891Z,95463.34
2022-11-24T23:22:47.347Z,95455.03
2022-11-24T23:25:14.901Z,95462.81
2022-11-24T23:27:43.661Z,95480.50
2022-11-24T23:30:11.526Z,95471.00
2022-11-24T23:32:38.990Z,95464.00
2022-11-24T23:35:12.353Z,95449.72
2022-11-24T23:38:06.104Z,95464.09
2022-11-24T23:40:29.175Z,95458.56
2022-11-24T23:42:58.004Z,95468.25
2022-11-24T23:45:25.463Z,95461.72
2022-11-24T23:47:54.764Z,95450.78
2022-11-24T23:50:22.208Z,95463.13
2022-11-24T23:52:49.659Z,95448.03
2022-11-24T23:55:17.226Z,95453.31
2022-11-24T23:57:44.631Z,95433.59
